This is the latest recevied weather packets stored in our database for station/object YO6LRV-6. If no packets are shown the sender has not sent any weather packets the latest 1 day(s).
| Time | Temp. | Humidity | Pressure | Rain* | Wind** | Luminosity | Snow |
|---|---|---|---|---|---|---|---|
| 1777792052 | 10° C | 51% | 1040.9 hPa | - | - | - | - |
| 1777791152 | 9.44° C | 50% | 1040.9 hPa | - | - | - | - |
| 1777790252 | 8.89° C | 52% | 1040.9 hPa | - | - | - | - |
| 1777789355 | 8.89° C | 53% | 1040.7 hPa | - | - | - | - |
| 1777788454 | 8.33° C | 57% | 1040.8 hPa | - | - | - | - |
| 1777787554 | 7.78° C | 59% | 1040.7 hPa | - | - | - | - |
| 1777786654 | 8.89° C | 55% | 1040.6 hPa | - | - | - | - |
| 1777785754 | 8.33° C | 56% | 1040.6 hPa | - | - | - | - |
| 1777784854 | 8.33° C | 57% | 1040.5 hPa | - | - | - | - |
| 1777783954 | 7.78° C | 58% | 1040.3 hPa | - | - | - | - |
| 1777783054 | 6.67° C | 60% | 1040.3 hPa | - | - | - | - |
| 1777782154 | 6.11° C | 62% | 1040.2 hPa | - | - | - | - |
| 1777781253 | 5.56° C | 61% | 1040.1 hPa | - | - | - | - |
| 1777780353 | 5° C | 63% | 1040.1 hPa | - | - | - | - |
| 1777779453 | 3.89° C | 67% | 1040 hPa | - | - | - | - |
| 1777778553 | 3.33° C | 71% | 1040 hPa | - | - | - | - |
| 1777777653 | 2.22° C | 74% | 1039.9 hPa | - | - | - | - |
| 1777776753 | 2.22° C | 73% | 1039.9 hPa | - | - | - | - |
| 1777775853 | 2.22° C | 72% | 1040 hPa | - | - | - | - |
| 1777774952 | 2.22° C | 70% | 1040 hPa | - | - | - | - |
| 1777774052 | 2.78° C | 70% | 1039.7 hPa | - | - | - | - |
| 1777773152 | 2.78° C | 70% | 1039.7 hPa | - | - | - | - |
| 1777772252 | 2.78° C | 70% | 1039.8 hPa | - | - | - | - |
| 1777771352 | 2.78° C | 69% | 1039.9 hPa | - | - | - | - |
| 1777770452 | 2.78° C | 69% | 1039.8 hPa | - | - | - | - |
* Rain since midnight (hover to see other rain measurements)
** Current wind speed in m/s (hover to see current wind gust speed)